MST,Max TemperatureF,Mean TemperatureF,Min TemperatureF,Max Dew PointF,MeanDew PointF,Min DewpointF,Max Humidity, Mean Humidity, Min Humidity, Max Sea Level PressureIn, Mean Sea Level PressureIn, Min Sea Level PressureIn, Max VisibilityMiles, Mean VisibilityMiles, Min VisibilityMiles, Max Wind SpeedMPH, Mean Wind SpeedMPH, Max Gust SpeedMPH,PrecipitationIn, CloudCover, Events, WindDirDegrees
2014-2-1,19,6,-8,12,3,-13,86,77,65,30.19,30.03,29.80,10,9,0,13,4,,0.00,3,Fog-Snow,337
2014-2-2,24,6,-12,14,-1,-19,88,77,64,30.18,30.10,30.04,10,9,0,10,3,,0.00,0,Fog,259
2014-2-3,22,14,7,15,11,4,86,79,67,30.05,29.99,29.92,10,6,0,6,0,,0.00,5,Fog,296
2014-2-4,19,9,-3,16,3,-10,87,78,71,30.43,30.18,30.04,10,5,0,23,12,29,0.00,8,Snow,34
2014-2-5,3,-8,-20,-6,-13,-28,77,72,63,30.54,30.49,30.43,10,10,7,18,9,,0.00,1,,302
2014-2-6,5,-8,-22,-2,-11,-30,79,72,65,30.44,30.28,30.07,10,7,0,9,3,,0.00,7,Snow,201
2014-2-7,15,7,0,8,0,-6,80,72,60,30.07,29.93,29.82,10,10,5,12,6,,0.00,4,,210
2014-2-8,27,20,12,19,13,6,85,73,64,30.15,29.93,29.83,10,10,7,15,6,,0.00,5,Snow,6
2014-2-9,15,12,10,9,6,5,84,79,70,30.25,30.19,30.14,10,6,0,13,7,,0.04,8,Snow,83
2014-2-10,17,13,9,10,7,5,84,80,74,30.24,30.19,30.13,10,10,4,15,6,18,0.00,8,Snow,165
2014-2-11,34,19,4,26,14,0,91,82,70,30.17,30.01,29.90,10,4,0,21,3,25,0.01,3,Fog-Snow,263
2014-2-12,34,23,12,26,21,10,91,76,60,30.13,29.95,29.73,10,10,10,24,11,28,0.00,2,,258
2014-2-13,44,32,19,32,28,18,91,77,62,29.86,29.76,29.65,10,10,5,28,7,38,0.03,1,Rain,264
2014-2-14,42,38,34,32,27,24,90,64,49,30.02,29.92,29.79,10,10,10,21,13,29,0.00,3,Rain,283
2014-2-15,48,38,28,34,30,26,91,74,46,30.08,29.92,29.70,10,10,10,22,11,26,0.00,5,Rain,292
2014-2-16,57,42,27,39,32,25,92,72,44,30.02,29.79,29.63,10,10,10,33,5,43,0.00,2,Rain,203
2014-2-17,56,42,29,32,25,18,89,59,26,30.03,29.92,29.75,10,10,10,31,15,36,0.00,0,Rain,271
2014-2-18,55,40,26,29,23,15,86,60,23,30.00,29.85,29.70,10,10,10,39,10,48,0.00,0,,293
2014-2-19,59,41,23,33,25,20,93,60,23,29.95,29.68,29.46,10,9,0,29,8,40,0.03,2,Rain-Snow,212
2014-2-20,36,28,19,29,20,15,90,69,50,29.88,29.80,29.67,10,10,2,31,16,47,0.00,2,Snow,314
2014-2-21,48,34,21,25,20,15,82,62,29,29.89,29.81,29.77,10,10,10,24,10,32,0.00,2,,283
2014-2-22,38,30,22,29,23,19,94,78,48,30.11,29.95,29.88,10,7,0,20,6,17,0.03,4,Snow,73
2014-2-23,23,20,18,20,17,15,91,87,78,30.22,30.18,30.09,10,4,1,14,10,17,0.02,8,Snow,103
2014-2-24,28,16,2,24,15,-4,92,83,69,30.35,30.12,29.95,10,8,2,26,12,31,0.01,6,,142
2014-2-25,14,4,-8,10,-1,-13,85,78,67,30.41,30.31,30.19,10,8,1,15,3,18,0.00,5,Snow,346
2014-2-26,25,6,-14,15,3,-20,85,73,58,30.32,30.07,29.96,10,9,0,15,6,,0.00,1,Fog-Snow,259
2014-2-27,23,10,-2,17,8,-7,85,79,68,29.98,29.77,29.59,10,10,10,15,6,18,0.00,1,,118
2014-2-28,30,22,13,25,15,8,88,78,67,30.07,29.81,29.55,10,10,3,21,7,28,0.00,5,Snow,25